Time;durP1;ratioP1;P1;durP2;ratioP2;P2;SDS_P1;SDS_P2;PMS_P1;PMS_P2;Temp;Humidity;BMP_temperature;BMP_pressure;BME280_temperature;BME280_humidity;BME280_pressure;Samples;Min_cycle;Max_cycle;Signal;HPM_P1;HPM_P2
2023/01/30 00:01:31;;;;;;;;;31.00;22.67;;;;;7.28;93.90;101918.41;5121377;27;45416;-64
2023/01/30 00:03:56;;;;;;;;;22.33;21.33;;;;;7.15;93.80;101891.22;5119723;27;46325;-65
2023/01/30 00:06:22;;;;;;;;;27.00;21.67;;;;;7.19;94.09;101893.88;5118099;27;45216;-66
2023/01/30 00:08:47;;;;;;;;;25.33;23.00;;;;;7.18;94.19;101892.13;5116797;27;45470;-66
2023/01/30 00:11:15;;;;;;;;;23.00;18.67;;;;;7.25;94.22;101891.34;5116699;27;45438;-64
2023/01/30 00:13:42;;;;;;;;;24.33;19.00;;;;;7.19;93.96;101883.41;5119045;27;45213;-64
2023/01/30 00:16:08;;;;;;;;;29.33;25.00;;;;;7.22;94.53;101904.38;5135547;27;45417;-64
2023/01/30 00:18:34;;;;;;;;;19.67;17.00;;;;;7.12;94.04;101879.84;5118982;27;45456;-64
2023/01/30 00:21:02;;;;;;;;;23.67;16.67;;;;;7.23;94.35;101898.28;5118378;27;45275;-65
2023/01/30 00:23:29;;;;;;;;;26.67;22.33;;;;;7.23;94.21;101875.59;5117703;27;45480;-65
2023/01/30 00:25:55;;;;;;;;;19.67;17.00;;;;;7.28;94.50;101878.25;5119155;27;45367;-64
2023/01/30 00:28:20;;;;;;;;;27.00;21.00;;;;;7.09;94.31;101844.03;5112776;27;45785;-64
2023/01/30 00:30:50;;;;;;;;;23.67;20.67;;;;;7.24;94.37;101879.09;5110713;27;45340;-65
2023/01/30 00:33:16;;;;;;;;;27.33;23.33;;;;;7.16;94.59;101858.06;5119219;27;46348;-64
2023/01/30 00:35:46;;;;;;;;;29.00;22.67;;;;;7.14;94.61;101876.41;5110793;27;45420;-64
2023/01/30 00:38:12;;;;;;;;;29.33;24.00;;;;;7.10;94.51;101855.38;5098914;27;45675;-64
2023/01/30 00:40:37;;;;;;;;;24.00;22.67;;;;;7.14;94.89;101870.25;5099020;27;45386;-64
2023/01/30 00:48:32;;;;;;;;;24.67;20.67;;;;;7.04;95.22;101850.94;5139942;27;45403;-64
2023/01/30 00:50:57;;;;;;;;;30.00;22.00;;;;;7.07;95.81;101857.97;5140373;27;45444;-63
2023/01/30 00:53:23;;;;;;;;;29.00;23.33;;;;;7.13;95.20;101858.03;5139773;27;45499;-64
2023/01/30 00:55:53;;;;;;;;;27.67;23.00;;;;;7.09;95.79;101861.50;5139957;27;45366;-64
2023/01/30 00:58:19;;;;;;;;;24.67;22.67;;;;;7.20;95.20;101872.94;5139846;27;45346;-63
2023/01/30 01:00:44;;;;;;;;;18.00;16.33;;;;;7.17;95.00;101866.81;5139989;27;45404;-63
2023/01/30 01:03:10;;;;;;;;;24.00;16.67;;;;;7.25;95.13;101852.91;5138154;27;48367;-65
2023/01/30 01:05:35;;;;;;;;;18.67;15.00;;;;;7.32;95.43;101864.34;5139823;27;45466;-65
2023/01/30 01:08:01;;;;;;;;;20.00;14.33;;;;;7.37;95.43;101872.22;5139944;27;45436;-65
2023/01/30 01:10:27;;;;;;;;;18.33;14.33;;;;;7.43;95.52;101878.38;5139068;27;45396;-64
2023/01/30 01:12:53;;;;;;;;;17.33;11.67;;;;;7.45;95.81;101862.66;5139247;27;45648;-65
2023/01/30 01:15:19;;;;;;;;;13.67;12.33;;;;;7.56;95.52;101873.25;5139688;27;45392;-64
2023/01/30 01:17:45;;;;;;;;;17.67;14.00;;;;;7.61;95.70;101880.28;5139761;27;45446;-65
2023/01/30 01:20:11;;;;;;;;;15.67;12.00;;;;;7.60;95.16;101869.78;5138204;27;45572;-65
2023/01/30 01:22:37;;;;;;;;;13.50;11.00;;;;;7.70;94.81;101870.72;5139513;27;47343;-64
2023/01/30 01:25:03;;;;;;;;;11.33;10.67;;;;;7.70;94.92;101871.63;5139489;27;45448;-64
2023/01/30 01:27:28;;;;;;;;;11.33;10.00;;;;;7.81;94.87;101875.19;5139578;27;45267;-65
2023/01/30 01:29:54;;;;;;;;;8.67;8.67;;;;;7.80;94.66;101862.09;5139505;27;45211;-65
2023/01/30 01:32:20;;;;;;;;;11.00;9.67;;;;;7.89;94.35;101861.25;5139204;27;46242;-65
2023/01/30 01:34:45;;;;;;;;;19.00;11.00;;;;;7.92;94.39;101861.28;5137739;27;45521;-65
2023/01/30 01:37:11;;;;;;;;;9.25;8.75;;;;;7.88;94.08;101855.13;5139341;27;45568;-65
2023/01/30 01:42:23;;;;;;;;;9.33;5.33;;;;;8.01;93.94;101850.84;5139299;27;45242;-65
2023/01/30 01:45:07;;;;;;;;;10.50;9.50;;;;;8.03;93.55;101859.59;5139022;27;45396;-65
2023/01/30 01:47:34;;;;;;;;;6.33;5.00;;;;;8.01;93.45;101842.97;5139251;27;45309;-63
2023/01/30 01:50:01;;;;;;;;;5.75;5.75;;;;;8.05;93.55;101847.38;5139361;27;45298;-63
2023/01/30 01:52:28;;;;;;;;;10.00;8.50;;;;;8.07;93.44;101839.50;5137558;27;47283;-63
2023/01/30 01:55:03;;;;;;;;;9.25;7.50;;;;;8.10;92.88;101836.88;5138875;27;45307;-62
2023/01/30 01:57:35;;;;;;;;;10.00;6.33;;;;;8.13;92.88;101836.91;5139300;27;45348;-62
2023/01/30 02:00:05;;;;;;;;;9.25;5.00;;;;;8.17;92.54;101829.03;5139336;27;45397;-62
2023/01/30 02:02:32;;;;;;;;;5.50;5.00;;;;;8.17;92.40;101838.69;5138720;27;46512;-63
2023/01/30 02:05:02;;;;;;;;;6.75;4.75;;;;;8.18;92.14;101832.56;5138935;27;45307;-63
2023/01/30 02:08:02;;;;;;;;;4.50;3.00;;;;;8.24;91.90;101834.34;5139162;27;45471;-62
2023/01/30 02:10:42;;;;;;;;;4.25;2.00;;;;;8.27;91.48;101836.97;5051581;28;45556;-62
2023/01/30 02:13:08;;;;;;;;;4.00;2.00;;;;;8.24;91.43;101832.59;5054573;28;45536;-62
2023/01/30 02:15:34;;;;;;;;;2.75;2.00;;;;;8.31;91.36;101844.88;5054158;28;45522;-63
2023/01/30 02:17:59;;;;;;;;;4.00;1.00;;;;;8.28;91.21;101842.22;5054663;28;45375;-63
2023/01/30 02:20:46;;;;;;;;;5.00;1.50;;;;;8.37;90.93;101846.66;5054871;28;45524;-62
2023/01/30 02:23:23;;;;;;;;;3.00;1.00;;;;;8.39;91.05;101847.50;5055321;28;46768;-63
2023/01/30 02:26:06;;;;;;;;;2.00;2.00;;;;;8.42;90.92;101841.41;5056512;28;46114;-63
2023/01/30 02:28:53;;;;;;;;;3.50;0.75;;;;;8.45;90.39;101847.59;5058079;28;45519;-63
2023/01/30 02:31:46;;;;;;;;;1.75;1.25;;;;;8.49;90.29;101828.34;5058223;28;45511;-63
2023/01/30 02:34:34;;;;;;;;;1.00;1.00;;;;;8.49;90.20;101820.47;5057713;28;45571;-63
2023/01/30 02:37:05;;;;;;;;;3.00;1.50;;;;;8.56;89.85;101824.00;5057596;28;45377;-62
2023/01/30 02:39:52;;;;;;;;;4.50;2.00;;;;;8.54;89.71;101803.00;5057923;28;45716;-62
2023/01/30 02:42:39;;;;;;;;;2.00;2.00;;;;;8.49;89.76;101791.59;5058223;28;45832;-63
2023/01/30 02:45:13;;;;;;;;;2.25;2.25;;;;;8.43;89.69;101788.06;5056065;28;46322;-64
2023/01/30 02:47:48;;;;;;;;;4.00;2.00;;;;;8.34;89.80;101781.91;5112035;27;45380;-64
2023/01/30 02:50:24;;;;;;;;;2.00;2.00;;;;;8.28;90.01;101775.78;5142131;27;45433;-64
2023/01/30 02:52:51;;;;;;;;;5.00;2.00;;;;;8.31;90.07;101788.91;5142137;27;45298;-63
2023/01/30 02:55:19;;;;;;;;;2.00;2.00;;;;;8.28;90.20;101797.63;5126055;27;46570;-63
2023/01/30 02:57:45;;;;;;;;;5.50;2.00;;;;;8.25;90.25;101787.13;5120953;27;45252;-63
2023/01/30 03:00:13;;;;;;;;;3.00;2.00;;;;;8.14;90.72;101779.19;5132988;27;45467;-64
2023/01/30 03:03:07;;;;;;;;;3.00;3.00;;;;;8.20;90.58;101794.09;5142062;27;45371;-64
2023/01/30 03:05:33;;;;;;;;;5.00;3.75;;;;;8.19;90.52;101798.47;5141827;27;45545;-64
2023/01/30 03:08:18;;;;;;;;;5.25;3.25;;;;;8.17;90.54;101796.69;5141618;27;45256;-64
2023/01/30 03:11:06;;;;;;;;;4.00;3.00;;;;;8.10;90.63;101782.66;5141335;27;45408;-64
2023/01/30 03:13:54;;;;;;;;;4.75;2.50;;;;;8.10;90.24;101790.53;5141880;27;45544;-65
2023/01/30 03:16:32;;;;;;;;;5.25;3.00;;;;;8.12;90.46;101794.06;5139724;27;46718;-65
2023/01/30 03:19:03;;;;;;;;;5.25;4.00;;;;;8.06;90.91;101785.28;5141548;27;45357;-65
2023/01/30 03:21:28;;;;;;;;;5.75;3.75;;;;;8.15;90.44;101794.06;5141662;27;45213;-65
2023/01/30 03:23:53;;;;;;;;;6.75;4.50;;;;;8.19;90.66;101787.97;5141752;27;45424;-65
2023/01/30 03:26:23;;;;;;;;;5.00;3.50;;;;;8.19;90.19;101772.22;5141219;27;46227;-66
2023/01/30 03:28:50;;;;;;;;;3.50;3.50;;;;;8.31;90.20;101781.88;5137844;27;45599;-66
2023/01/30 03:31:15;;;;;;;;;5.25;3.75;;;;;8.35;89.47;101786.28;5141294;27;45400;-66
2023/01/30 03:33:41;;;;;;;;;7.00;4.25;;;;;8.40;89.77;101780.19;5141225;27;45406;-66
2023/01/30 03:36:08;;;;;;;;;5.25;3.00;;;;;8.43;88.64;101783.66;5141207;27;45281;-66
2023/01/30 03:38:34;;;;;;;;;4.50;3.00;;;;;8.47;88.99;101784.59;5141190;27;45404;-65
2023/01/30 03:41:00;;;;;;;;;4.25;4.25;;;;;8.57;88.22;101785.47;5141496;27;45408;-65
2023/01/30 03:43:25;;;;;;;;;8.00;6.00;;;;;8.51;88.34;101763.63;5141537;27;45750;-65
2023/01/30 03:45:51;;;;;;;;;4.75;4.75;;;;;8.56;88.00;101782.00;5139307;27;46221;-65
2023/01/30 03:48:16;;;;;;;;;5.75;4.75;;;;;8.62;87.86;101781.13;5141238;27;45433;-66
2023/01/30 03:50:42;;;;;;;;;4.25;4.25;;;;;8.60;88.17;101783.75;5141140;27;45384;-66
2023/01/30 03:53:07;;;;;;;;;7.50;6.50;;;;;8.62;88.19;101776.75;5141463;27;45364;-66
2023/01/30 03:55:32;;;;;;;;;6.75;4.00;;;;;8.67;87.72;101776.75;5140779;27;45503;-66
2023/01/30 03:57:58;;;;;;;;;10.75;5.50;;;;;8.62;87.80;101770.63;5140506;27;45416;-65
2023/01/30 04:00:23;;;;;;;;;6.25;4.00;;;;;8.65;87.67;101770.63;5139891;27;45337;-65
2023/01/30 04:02:49;;;;;;;;;6.25;3.00;;;;;8.51;87.83;101752.22;5140471;27;45540;-65
2023/01/30 04:05:14;;;;;;;;;6.50;4.75;;;;;8.69;87.62;101782.91;5140952;27;46402;-66
2023/01/30 04:07:39;;;;;;;;;3.75;3.75;;;;;8.68;87.53;101778.50;5140685;27;46445;-65
2023/01/30 04:10:05;;;;;;;;;4.50;4.00;;;;;8.63;87.29;101770.63;5140892;27;45462;-66
2023/01/30 04:12:30;;;;;;;;;5.00;5.00;;;;;8.65;87.45;101776.75;5140657;27;45439;-66
2023/01/30 04:14:57;;;;;;;;;4.00;4.00;;;;;8.68;87.12;101792.53;5140332;27;45837;-66
2023/01/30 04:17:23;;;;;;;;;4.00;4.00;;;;;8.68;87.15;101784.66;5139603;27;45374;-66
2023/01/30 04:19:48;;;;;;;;;6.75;4.25;;;;;8.67;86.71;101782.91;5139132;27;45185;-66
2023/01/30 04:22:13;;;;;;;;;4.00;4.00;;;;;8.65;86.67;101776.75;5139688;27;45515;-66
2023/01/30 04:24:39;;;;;;;;;3.75;3.75;;;;;8.67;86.63;101782.00;5140143;27;46370;-66
2023/01/30 04:27:04;;;;;;;;;10.00;3.00;;;;;8.75;86.52;101803.91;5140514;27;45329;-66
2023/01/30 04:29:29;;;;;;;;;3.00;3.00;;;;;8.74;86.21;101785.53;5140642;27;45683;-66
2023/01/30 04:31:55;;;;;;;;;4.75;4.75;;;;;8.76;86.37;101795.16;5140590;27;45366;-66
2023/01/30 04:34:20;;;;;;;;;3.00;3.00;;;;;8.78;86.49;101785.53;5138798;27;46476;-66
2023/01/30 04:36:45;;;;;;;;;5.00;3.00;;;;;8.74;86.38;101775.03;5140103;27;45798;-66
2023/01/30 04:39:11;;;;;;;;;3.25;2.75;;;;;8.79;86.40;101776.78;5140545;27;45328;-65
2023/01/30 04:41:36;;;;;;;;;9.00;3.75;;;;;8.77;86.65;101785.53;5140705;27;45369;-65
2023/01/30 04:44:01;;;;;;;;;4.50;4.00;;;;;8.78;86.76;101782.03;5140074;27;45970;-66
2023/01/30 04:46:27;;;;;;;;;2.50;2.50;;;;;8.73;87.01;101775.88;5139096;27;45404;-66
2023/01/30 04:48:52;;;;;;;;;5.00;4.00;;;;;8.79;87.15;101784.66;5139942;27;45679;-65
2023/01/30 04:51:17;;;;;;;;;3.25;3.25;;;;;8.75;86.52;101782.91;5138753;27;45461;-65
2023/01/30 04:53:43;;;;;;;;;3.25;2.75;;;;;8.75;86.87;101779.41;5140021;27;46654;-65
2023/01/30 04:56:08;;;;;;;;;3.00;3.00;;;;;8.81;87.03;101776.78;5138552;27;45390;-65
2023/01/30 04:58:33;;;;;;;;;4.00;3.00;;;;;8.81;87.42;101767.13;5140213;27;45556;-65
2023/01/30 05:01:22;;;;;;;;;5.00;3.00;;;;;8.87;87.37;101776.78;5140025;27;45427;-65
2023/01/30 05:03:52;;;;;;;;;3.00;3.00;;;;;8.85;87.24;101784.66;5139825;27;46382;-65
2023/01/30 05:06:18;;;;;;;;;3.00;3.00;;;;;8.85;87.15;101778.53;5138343;27;45400;-65
2023/01/30 05:08:43;;;;;;;;;4.50;2.75;;;;;8.88;87.18;101784.66;5139927;27;45463;-65
2023/01/30 05:11:08;;;;;;;;;4.00;3.00;;;;;8.87;86.95;101782.03;5139836;27;45285;-65
2023/01/30 05:13:34;;;;;;;;;4.00;3.00;;;;;8.88;87.25;101778.53;5139883;27;45387;-65
2023/01/30 05:15:59;;;;;;;;;3.25;3.00;;;;;8.66;87.84;101741.75;5139326;27;45440;-65
2023/01/30 05:18:24;;;;;;;;;2.25;2.00;;;;;8.89;87.30;101773.28;5139823;27;45540;-65
2023/01/30 05:20:50;;;;;;;;;6.50;5.00;;;;;8.89;87.38;101764.53;5139999;27;45498;-65
2023/01/30 05:23:15;;;;;;;;;4.00;4.00;;;;;8.93;87.70;101770.66;5139366;27;45754;-65
2023/01/30 05:25:40;;;;;;;;;7.50;3.00;;;;;8.83;87.73;101759.25;5138107;27;45457;-65
2023/01/30 05:28:06;;;;;;;;;5.75;4.00;;;;;8.92;88.23;101772.41;5139641;27;45379;-65
2023/01/30 05:30:31;;;;;;;;;3.75;3.75;;;;;8.91;87.40;101772.41;5139768;27;45436;-64
2023/01/30 05:32:57;;;;;;;;;9.00;5.25;;;;;8.96;88.00;101789.03;5139402;27;46079;-64
2023/01/30 05:35:23;;;;;;;;;10.00;6.25;;;;;8.97;88.47;101794.28;5139221;27;45293;-65
2023/01/30 05:37:51;;;;;;;;;4.25;3.75;;;;;8.94;87.88;101789.03;5139508;27;45251;-65
2023/01/30 05:40:17;;;;;;;;;5.00;4.50;;;;;8.91;87.89;101789.03;5139679;27;45460;-65
2023/01/30 05:42:42;;;;;;;;;6.00;5.00;;;;;8.96;88.45;101789.03;5136629;27;45452;-65
2023/01/30 05:45:08;;;;;;;;;5.00;4.25;;;;;8.92;88.18;101788.19;5139328;27;45232;-65
2023/01/30 05:47:33;;;;;;;;;4.00;4.00;;;;;8.87;88.52;101772.44;5139002;27;45454;-65
2023/01/30 05:49:59;;;;;;;;;5.50;5.00;;;;;9.00;89.20;101788.19;5139658;27;45400;-65
2023/01/30 05:52:24;;;;;;;;;5.25;4.00;;;;;8.97;88.93;101770.66;5139127;27;45487;-65
2023/01/30 05:54:49;;;;;;;;;4.00;4.00;;;;;9.04;88.98;101785.53;5138967;27;45468;-64
2023/01/30 05:57:15;;;;;;;;;6.25;5.50;;;;;9.06;89.15;101783.81;5139053;27;45444;-64
2023/01/30 05:59:40;;;;;;;;;5.00;3.75;;;;;9.04;88.69;101775.03;5137531;27;45267;-65
2023/01/30 06:02:06;;;;;;;;;7.50;4.25;;;;;9.10;88.68;101779.41;5138798;27;45437;-65
2023/01/30 06:04:31;;;;;;;;;10.50;4.75;;;;;9.09;89.31;101788.19;5138675;27;45365;-65
2023/01/30 06:06:56;;;;;;;;;7.00;5.00;;;;;8.88;89.07;101747.03;5138951;27;45326;-65
2023/01/30 06:09:22;;;;;;;;;5.75;4.00;;;;;9.13;88.77;101796.94;5137747;27;45321;-64
2023/01/30 06:11:47;;;;;;;;;3.25;3.00;;;;;9.04;89.86;101784.69;5138401;27;45436;-64
2023/01/30 06:14:12;;;;;;;;;9.75;5.00;;;;;9.05;89.99;101795.19;5138676;27;45503;-65
2023/01/30 06:16:38;;;;;;;;;10.00;4.50;;;;;9.10;89.79;101805.69;5138219;27;45319;-65
2023/01/30 06:19:03;;;;;;;;;10.00;5.75;;;;;9.11;89.81;101809.22;5138838;27;45306;-65
2023/01/30 06:21:29;;;;;;;;;10.00;6.33;;;;;9.14;90.23;101811.84;5138623;27;46563;-65
2023/01/30 06:23:54;;;;;;;;;7.00;6.25;;;;;9.16;89.98;101816.19;5138605;27;45308;-65
2023/01/30 06:26:20;;;;;;;;;5.75;5.00;;;;;9.19;89.29;101818.84;5138686;27;45441;-65
2023/01/30 06:28:45;;;;;;;;;6.00;5.00;;;;;9.18;89.50;101818.84;5136926;27;45344;-65
2023/01/30 06:31:10;;;;;;;;;5.50;4.00;;;;;9.20;88.64;101820.59;5138286;27;46555;-65
2023/01/30 06:33:36;;;;;;;;;5.50;4.00;;;;;9.20;89.00;101815.31;5136973;27;45549;-65
2023/01/30 06:36:01;;;;;;;;;6.25;5.50;;;;;9.15;89.16;101811.84;5138513;27;45395;-65
2023/01/30 06:38:27;;;;;;;;;6.75;5.00;;;;;9.22;89.08;101821.47;5138795;27;45445;-65
2023/01/30 06:40:52;;;;;;;;;4.00;4.00;;;;;9.04;88.85;101789.94;5138269;27;46024;-65
2023/01/30 06:43:17;;;;;;;;;5.00;3.75;;;;;9.22;88.17;101816.22;5138417;27;45355;-65
2023/01/30 06:45:43;;;;;;;;;6.50;6.00;;;;;9.24;88.80;101824.97;5136879;27;45513;-65
2023/01/30 06:48:08;;;;;;;;;8.67;6.67;;;;;9.28;88.44;101831.13;5138407;27;45333;-65
2023/01/30 06:50:34;;;;;;;;;5.25;5.25;;;;;9.31;88.47;101839.00;5138450;27;46340;-65
2023/01/30 06:53:05;;;;;;;;;6.67;6.67;;;;;9.33;88.62;101839.88;5138347;27;45673;-64
2023/01/30 06:55:34;;;;;;;;;6.50;6.25;;;;;9.28;88.90;101836.38;5138385;27;45364;-64
2023/01/30 06:58:02;;;;;;;;;6.75;4.25;;;;;9.32;89.01;101840.72;5138528;27;45530;-64
2023/01/30 07:00:28;;;;;;;;;7.00;6.67;;;;;9.36;88.27;101841.63;5136773;27;46720;-65
2023/01/30 07:02:53;;;;;;;;;15.33;7.67;;;;;9.38;88.51;101848.63;5136906;27;46011;-65
2023/01/30 07:05:18;;;;;;;;;5.50;4.75;;;;;9.41;87.70;101855.66;5138360;27;45288;-64
2023/01/30 07:07:43;;;;;;;;;6.75;5.00;;;;;9.41;87.73;101850.41;5138373;27;45397;-64
2023/01/30 07:10:10;;;;;;;;;6.00;4.00;;;;;9.42;87.54;101860.00;5140686;27;46746;-64
2023/01/30 07:12:36;;;;;;;;;7.00;6.00;;;;;9.40;87.40;101865.28;5141446;27;45408;-65
2023/01/30 07:15:02;;;;;;;;;8.00;4.25;;;;;9.42;87.52;101873.16;5141609;27;45632;-64
2023/01/30 07:17:27;;;;;;;;;6.00;5.25;;;;;9.43;87.37;101871.44;5141839;27;45209;-64
2023/01/30 07:19:52;;;;;;;;;6.33;4.67;;;;;9.39;86.61;101862.66;5139838;27;46740;-64
2023/01/30 07:22:18;;;;;;;;;9.50;5.75;;;;;9.40;86.70;101869.66;5141493;27;45262;-64
2023/01/30 07:24:43;;;;;;;;;9.33;7.00;;;;;9.37;85.97;101875.78;5141493;27;45424;-64
2023/01/30 07:27:10;;;;;;;;;14.33;7.67;;;;;9.38;86.14;101874.03;5140074;27;45421;-64
2023/01/30 07:29:37;;;;;;;;;7.00;5.75;;;;;9.38;85.46;101861.78;5141591;27;45369;-64
2023/01/30 07:32:03;;;;;;;;;7.67;7.67;;;;;9.38;85.18;101869.66;5139435;27;45531;-64
2023/01/30 07:34:28;;;;;;;;;12.75;7.50;;;;;9.37;85.27;101881.03;5141116;27;45360;-64
2023/01/30 07:36:54;;;;;;;;;7.50;7.50;;;;;9.30;84.86;101876.66;5141591;27;45536;-64
2023/01/30 07:39:19;;;;;;;;;6.25;4.50;;;;;9.27;84.72;101881.06;5141390;27;45348;-65
2023/01/30 07:41:44;;;;;;;;;5.25;4.50;;;;;9.23;85.06;101888.03;5141292;27;45462;-65
2023/01/30 07:44:11;;;;;;;;;6.25;6.00;;;;;9.15;85.09;101893.28;5141370;27;45326;-65
2023/01/30 07:46:36;;;;;;;;;6.75;6.00;;;;;9.12;85.23;101893.28;5139760;27;45423;-65
2023/01/30 07:49:04;;;;;;;;;12.50;7.00;;;;;9.11;85.45;101909.06;5140763;27;46213;-65
2023/01/30 07:51:30;;;;;;;;;6.25;5.75;;;;;9.09;86.22;101916.94;5141069;27;45378;-64
2023/01/30 07:53:55;;;;;;;;;7.00;4.00;;;;;9.10;86.23;101909.91;5141193;27;45448;-65
2023/01/30 07:56:21;;;;;;;;;6.50;6.50;;;;;9.06;86.21;101904.66;5139711;27;45366;-65
2023/01/30 07:58:47;;;;;;;;;6.25;5.00;;;;;9.19;85.73;101915.19;5137503;27;46597;-65
2023/01/30 08:01:12;;;;;;;;;7.75;6.00;;;;;9.22;85.52;101917.81;5140918;27;45363;-65
2023/01/30 08:03:38;;;;;;;;;11.50;7.25;;;;;9.18;85.60;101918.72;5140766;27;45555;-66
2023/01/30 08:06:03;;;;;;;;;7.67;5.00;;;;;9.18;85.50;101923.97;5141122;27;45742;-66
2023/01/30 08:08:29;;;;;;;;;12.00;9.67;;;;;9.20;85.63;101937.97;5140548;27;46321;-66
2023/01/30 08:10:54;;;;;;;;;7.00;7.00;;;;;9.24;85.75;101939.72;5140575;27;45414;-66
2023/01/30 08:13:20;;;;;;;;;10.00;8.25;;;;;9.29;85.12;101937.09;5140900;27;45335;-65
2023/01/30 08:15:46;;;;;;;;;10.67;6.00;;;;;9.27;85.03;101928.34;5139197;27;45316;-66
2023/01/30 08:18:11;;;;;;;;;8.50;7.00;;;;;9.34;84.66;101948.53;5140537;27;46318;-66
2023/01/30 08:20:36;;;;;;;;;4.00;4.00;;;;;9.33;84.21;101946.75;5138823;27;45308;-66
2023/01/30 08:23:02;;;;;;;;;6.33;6.00;;;;;9.33;83.93;101939.75;5140728;27;45305;-66
2023/01/30 08:25:28;;;;;;;;;6.00;5.00;;;;;9.38;83.56;101952.88;5140791;27;45214;-66
2023/01/30 08:27:54;;;;;;;;;4.75;4.50;;;;;9.38;83.27;101948.53;5140284;27;45709;-66
2023/01/30 08:30:21;;;;;;;;;5.75;5.25;;;;;9.36;83.27;101931.84;5140436;27;45399;-66
2023/01/30 08:32:46;;;;;;;;;8.75;6.50;;;;;9.35;82.87;101940.63;5140390;27;45306;-66
2023/01/30 08:35:12;;;;;;;;;7.00;7.00;;;;;9.41;82.97;101955.53;5138878;27;45447;-66
2023/01/30 08:37:39;;;;;;;;;9.50;6.25;;;;;9.40;82.66;101954.66;5140158;27;45467;-66
2023/01/30 08:40:05;;;;;;;;;13.00;5.00;;;;;9.43;82.71;101964.28;5140305;27;45304;-66
2023/01/30 08:42:31;;;;;;;;;9.25;8.00;;;;;9.46;82.34;101963.44;5140341;27;45378;-66
2023/01/30 08:44:56;;;;;;;;;6.00;5.00;;;;;9.43;82.67;101959.03;5140543;27;45299;-66
2023/01/30 08:47:21;;;;;;;;;7.00;7.00;;;;;9.43;82.54;101948.53;5140109;27;45519;-66
2023/01/30 08:49:47;;;;;;;;;11.75;8.00;;;;;9.53;82.38;101963.44;5139879;27;45223;-66
2023/01/30 08:52:12;;;;;;;;;18.00;16.00;;;;;9.58;82.44;101959.06;5138604;27;45392;-65
2023/01/30 08:54:38;;;;;;;;;12.25;7.00;;;;;9.64;82.45;101973.09;5140383;27;45489;-65
2023/01/30 08:57:03;;;;;;;;;11.50;6.50;;;;;9.67;81.94;101981.88;5139890;27;45440;-66
2023/01/30 08:59:29;;;;;;;;;9.50;6.00;;;;;9.71;81.41;101982.72;5140031;27;45504;-66
2023/01/30 09:01:54;;;;;;;;;9.75;5.75;;;;;9.70;81.17;101984.50;5138603;27;45525;-66
2023/01/30 09:04:22;;;;;;;;;6.75;5.00;;;;;9.64;81.33;101978.34;5139969;27;45416;-66
2023/01/30 09:06:47;;;;;;;;;5.00;4.00;;;;;9.79;81.18;101995.88;5139961;27;47377;-66
2023/01/30 09:09:12;;;;;;;;;12.67;7.00;;;;;9.87;80.54;101994.13;5138206;27;45435;-66
2023/01/30 09:11:38;;;;;;;;;7.50;4.00;;;;;9.92;79.82;101993.28;5139824;27;45484;-66
2023/01/30 09:14:03;;;;;;;;;6.00;5.00;;;;;9.91;79.87;101995.91;5140026;27;45475;-66
2023/01/30 09:16:28;;;;;;;;;6.75;6.25;;;;;9.83;79.56;101976.59;5139618;27;46431;-66
2023/01/30 09:18:54;;;;;;;;;6.50;3.25;;;;;10.05;77.75;102002.03;5139766;27;45288;-66
2023/01/30 09:21:20;;;;;;;;;4.50;2.75;;;;;10.19;76.10;102009.03;5139738;27;45409;-66
2023/01/30 09:23:46;;;;;;;;;4.50;2.00;;;;;10.22;73.82;101999.41;5139901;27;45442;-66
2023/01/30 09:26:11;;;;;;;;;2.00;2.00;;;;;10.41;72.72;102009.91;5139396;27;45873;-66
2023/01/30 09:28:37;;;;;;;;;6.75;2.75;;;;;10.43;71.19;102016.09;5137953;27;45157;-66
2023/01/30 09:31:03;;;;;;;;;2.50;2.50;;;;;10.42;71.34;102009.06;5139694;27;45314;-66
2023/01/30 09:33:28;;;;;;;;;6.00;3.00;;;;;10.38;69.06;102013.47;5139114;27;45332;-66
2023/01/30 09:35:54;;;;;;;;;3.00;2.00;;;;;10.31;69.78;102002.88;5139122;27;46330;-66
2023/01/30 09:38:20;;;;;;;;;6.00;6.00;;;;;10.28;68.93;101998.50;5139275;27;45329;-65
2023/01/30 09:40:55;;;;;;;;;3.25;2.50;;;;;10.45;69.30;102003.78;5139460;27;45453;-66
2023/01/30 09:44:00;;;;;;;;;4.00;2.00;;;;;10.45;68.76;102001.13;5139571;27;45490;-66
2023/01/30 09:46:53;;;;;;;;;5.25;2.25;;;;;10.34;67.16;102008.19;5137422;27;46539;-66
2023/01/30 09:49:42;;;;;;;;;4.75;3.75;;;;;10.57;67.62;102014.31;5139001;27;45426;-66
2023/01/30 09:52:27;;;;;;;;;11.00;8.75;;;;;11.76;64.25;102020.75;5139236;27;45268;-66
2023/01/30 09:54:59;;;;;;;;;9.00;4.75;;;;;12.22;63.54;102024.84;5139127;27;45532;-66
2023/01/30 09:57:25;;;;;;;;;11.00;9.00;;;;;11.93;63.03;101988.97;5139048;27;46306;-66
2023/01/30 10:00:08;;;;;;;;;3.00;3.00;;;;;12.08;62.77;102025.81;5138824;27;45410;-66
2023/01/30 10:03:02;;;;;;;;;12.25;6.00;;;;;12.36;61.91;102028.22;5137342;27;45322;-66
2023/01/30 10:05:37;;;;;;;;;8.00;3.00;;;;;13.34;59.36;102020.94;5139153;27;45384;-66
2023/01/30 10:08:16;;;;;;;;;3.50;3.50;;;;;14.73;54.81;102023.09;5138823;27;45512;-66
2023/01/30 10:10:42;;;;;;;;;4.50;2.25;;;;;15.90;52.49;102031.19;5138581;27;45437;-66
2023/01/30 10:13:33;;;;;;;;;7.25;5.50;;;;;15.99;50.21;102041.59;5138940;27;45437;-66
2023/01/30 10:15:58;;;;;;;;;5.75;3.00;;;;;15.69;47.98;102039.66;5054779;28;45518;-66
2023/01/30 10:18:48;;;;;;;;;6.75;5.00;;;;;15.48;48.94;102028.59;5054508;28;46245;-67
2023/01/30 10:21:41;;;;;;;;;5.00;2.00;;;;;14.82;49.39;102041.47;5014397;28;45399;-66
2023/01/30 10:24:09;;;;;;;;;2.25;2.25;;;;;14.27;48.98;102048.63;5014680;28;45452;-66
2023/01/30 10:26:35;;;;;;;;;5.50;3.50;;;;;13.92;50.01;102055.41;5014743;28;45293;-66
2023/01/30 10:29:06;;;;;;;;;4.00;3.75;;;;;13.84;51.25;102063.47;5034406;28;47536;-66
2023/01/30 10:31:50;;;;;;;;;3.75;3.00;;;;;13.71;51.96;102046.88;5054279;28;45385;-66
2023/01/30 10:34:31;;;;;;;;;3.00;2.00;;;;;13.56;52.87;102048.00;5054532;28;45527;-66
2023/01/30 10:37:02;;;;;;;;;5.00;2.75;;;;;13.38;52.14;102048.25;5054458;28;45501;-66
2023/01/30 10:39:54;;;;;;;;;4.25;3.75;;;;;13.20;53.16;102055.50;5054207;28;47119;-67
2023/01/30 10:42:33;;;;;;;;;2.25;1.25;;;;;13.06;53.47;102070.66;5054218;28;45449;-66
2023/01/30 10:45:23;;;;;;;;;2.50;2.25;;;;;12.99;54.07;102067.19;5055135;28;45366;-66
2023/01/30 10:48:15;;;;;;;;;1.00;1.00;;;;;12.81;53.90;102063.00;5058040;28;45716;-66
2023/01/30 10:50:55;;;;;;;;;1.00;1.00;;;;;12.78;53.79;102067.41;5057739;28;45418;-66
2023/01/30 10:53:47;;;;;;;;;4.50;1.50;;;;;12.53;53.47;102084.41;5097678;27;45340;-66
2023/01/30 10:56:18;;;;;;;;;6.75;3.00;;;;;12.46;53.53;102080.09;5121124;27;45427;-66
2023/01/30 10:59:14;;;;;;;;;3.25;1.75;;;;;12.32;53.40;102085.47;5121380;27;45419;-67
2023/01/30 11:01:44;;;;;;;;;2.50;2.00;;;;;12.10;52.95;102074.22;5121111;27;46678;-66
2023/01/30 11:04:17;;;;;;;;;2.00;1.00;;;;;11.88;53.17;102080.50;5121110;27;45337;-66
2023/01/30 11:06:43;;;;;;;;;3.00;2.00;;;;;11.82;53.56;102092.84;5120996;27;45457;-66
2023/01/30 11:09:08;;;;;;;;;4.00;2.25;;;;;11.69;53.40;102072.72;5126768;27;45585;-66
2023/01/30 11:11:50;;;;;;;;;4.25;1.75;;;;;11.61;53.72;102082.44;5119822;27;46140;-66
2023/01/30 11:14:16;;;;;;;;;2.25;2.25;;;;;11.45;53.73;102093.03;5100335;27;45452;-66
2023/01/30 11:16:53;;;;;;;;;5.50;2.00;;;;;11.38;54.51;102101.00;5100439;27;45612;-66
2023/01/30 11:19:29;;;;;;;;;5.25;2.25;;;;;11.31;54.67;102087.84;5113264;27;45407;-66
2023/01/30 11:22:01;;;;;;;;;2.50;2.00;;;;;11.17;54.79;102079.13;5116744;27;46600;-68
2023/01/30 11:24:36;;;;;;;;;4.00;2.00;;;;;11.13;55.04;102062.41;5124048;27;45547;-67
2023/01/30 11:27:29;;;;;;;;;3.00;1.00;;;;;11.02;55.40;102072.13;5120927;27;45322;-66
2023/01/30 11:30:16;;;;;;;;;4.25;1.25;;;;;10.96;55.51;102064.22;5112161;27;45513;-66
2023/01/30 11:32:47;;;;;;;;;3.50;2.00;;;;;10.88;55.54;102069.53;5120430;27;47183;-66
2023/01/30 11:35:12;;;;;;;;;3.75;2.00;;;;;10.87;55.36;102069.53;5120632;27;45498;-66
2023/01/30 11:37:40;;;;;;;;;5.00;1.25;;;;;10.83;55.94;102080.97;5120463;27;45320;-67
2023/01/30 11:40:22;;;;;;;;;4.00;1.00;;;;;10.78;55.89;102068.66;5124084;27;45394;-68
2023/01/30 11:42:50;;;;;;;;;3.50;1.00;;;;;10.74;55.86;102064.28;5116484;27;47099;-66
2023/01/30 11:45:25;;;;;;;;;5.50;4.00;;;;;10.58;55.81;102047.63;5119508;27;45566;-65
2023/01/30 11:47:58;;;;;;;;;7.50;3.00;;;;;10.73;56.44;102066.94;5119650;27;45382;-65